Terminal Aerodrome Forecast
Issued by NWS Central Illinois

Home | Current Version | Previous Version | Text Only | Print | Product List | Glossary On
Versions: 1 2 3 4 5 6 7 8 9 10 11 12
134
FTUS43 KILX 220525
TAFSPI
TAF
KSPI 220525Z 2206/2306 21007KT P6SM BKN300
     FM222200 28005KT P6SM FEW050 SCT300=

USA.gov is the U.S. government's official web portal to all federal, state and local government web resources and services.